Time;durP1;ratioP1;P1;durP2;ratioP2;P2;SDS_P1;SDS_P2;PMS_P1;PMS_P2;Temp;Humidity;BMP_temperature;BMP_pressure;BME280_temperature;BME280_humidity;BME280_pressure;Samples;Min_cycle;Max_cycle;Signal;HPM_P1;HPM_P2
2023/06/30 00:01:14;;;;;;;12.63;8.85;;;;;;;;;;6219885;28;20179;-80
2023/06/30 00:04:18;;;;;;;16.53;8.90;;;;;;;;;;6221122;28;20057;-80
2023/06/30 00:07:22;;;;;;;15.68;8.98;;;;;;;;;;6219606;28;20034;-82
2023/06/30 00:10:22;;;;;;;16.15;9.18;;;;;;;;;;6229943;28;20205;-80
2023/06/30 00:13:22;;;;;;;11.40;7.50;;;;;;;;;;6219214;28;20025;-83
2023/06/30 00:16:23;;;;;;;13.37;7.87;;;;;;;;;;6215841;28;20026;-81
2023/06/30 00:19:24;;;;;;;10.00;7.22;;;;;;;;;;6216430;28;20033;-80
2023/06/30 00:22:24;;;;;;;10.30;7.65;;;;;;;;;;6197633;28;20117;-80
2023/06/30 00:25:26;;;;;;;10.02;7.53;;;;;;;;;;6213802;28;20132;-80
2023/06/30 00:28:26;;;;;;;14.13;8.13;;;;;;;;;;6222292;28;20067;-80
2023/06/30 00:31:26;;;;;;;12.87;8.40;;;;;;;;;;6218682;28;20053;-80
2023/06/30 00:34:26;;;;;;;15.63;7.63;;;;;;;;;;6218566;28;20038;-80
2023/06/30 00:37:26;;;;;;;12.48;8.45;;;;;;;;;;6218009;28;20068;-81
2023/06/30 00:40:26;;;;;;;13.20;8.90;;;;;;;;;;6219072;28;20034;-81
2023/06/30 00:43:27;;;;;;;15.37;10.10;;;;;;;;;;6200632;28;20160;-79
2023/06/30 00:46:27;;;;;;;12.90;9.57;;;;;;;;;;6217825;28;20481;-80
2023/06/30 00:49:28;;;;;;;10.80;8.20;;;;;;;;;;6210033;28;20080;-80
2023/06/30 00:52:28;;;;;;;13.83;8.77;;;;;;;;;;6210768;28;20028;-82
2023/06/30 00:55:30;;;;;;;11.27;7.33;;;;;;;;;;6217962;28;20057;-82
2023/06/30 00:58:30;;;;;;;10.43;6.93;;;;;;;;;;6219285;28;20028;-80
2023/06/30 01:01:36;;;;;;;12.90;9.07;;;;;;;;;;6223545;28;20026;-80
2023/06/30 01:04:46;;;;;;;11.60;8.60;;;;;;;;;;6216484;28;20029;-80
2023/06/30 01:07:56;;;;;;;11.02;8.52;;;;;;;;;;6213369;28;20022;-80
2023/06/30 01:10:56;;;;;;;10.35;6.97;;;;;;;;;;6218227;28;20563;-80
2023/06/30 01:13:58;;;;;;;11.73;6.80;;;;;;;;;;6217669;28;20068;-82
2023/06/30 01:16:59;;;;;;;13.68;9.07;;;;;;;;;;6221995;28;20076;-80
2023/06/30 01:20:00;;;;;;;14.50;9.05;;;;;;;;;;6217648;28;20499;-79
2023/06/30 01:23:03;;;;;;;14.27;9.00;;;;;;;;;;6217607;28;20034;-81
2023/06/30 01:26:04;;;;;;;10.85;7.78;;;;;;;;;;6211961;28;20030;-80
2023/06/30 01:29:06;;;;;;;12.30;7.57;;;;;;;;;;6225509;28;20118;-79
2023/06/30 01:32:07;;;;;;;11.50;8.73;;;;;;;;;;6214525;28;20019;-74
2023/06/30 01:35:07;;;;;;;13.53;8.73;;;;;;;;;;6217272;28;20057;-74
2023/06/30 01:38:07;;;;;;;15.33;9.53;;;;;;;;;;6218042;28;20021;-74
2023/06/30 01:41:08;;;;;;;15.33;10.03;;;;;;;;;;6220514;28;20026;-74
2023/06/30 01:44:09;;;;;;;17.37;9.97;;;;;;;;;;6222315;28;20045;-80
2023/06/30 01:47:10;;;;;;;13.90;9.33;;;;;;;;;;6222946;28;20025;-79
2023/06/30 01:50:10;;;;;;;15.87;8.17;;;;;;;;;;6229011;28;20471;-80
2023/06/30 01:53:10;;;;;;;12.60;9.23;;;;;;;;;;6223433;28;20116;-81
2023/06/30 01:56:10;;;;;;;12.57;9.55;;;;;;;;;;6224467;28;20464;-79
2023/06/30 01:59:10;;;;;;;18.43;11.37;;;;;;;;;;6220706;28;20050;-79
2023/06/30 02:02:12;;;;;;;13.10;9.33;;;;;;;;;;6226007;28;20348;-79
2023/06/30 02:05:13;;;;;;;14.27;8.80;;;;;;;;;;6219880;28;20022;-81
2023/06/30 02:08:13;;;;;;;13.77;9.17;;;;;;;;;;6223350;28;20057;-81
2023/06/30 02:11:13;;;;;;;15.67;9.50;;;;;;;;;;6221301;28;20030;-80
2023/06/30 02:14:13;;;;;;;15.93;8.83;;;;;;;;;;6215925;28;20084;-79
2023/06/30 02:17:13;;;;;;;13.87;8.57;;;;;;;;;;6227064;28;20140;-79
2023/06/30 02:20:14;;;;;;;15.77;7.97;;;;;;;;;;6222866;28;20037;-79
2023/06/30 02:23:14;;;;;;;13.63;8.83;;;;;;;;;;6221457;28;20516;-80
2023/06/30 02:26:14;;;;;;;12.50;8.10;;;;;;;;;;6219221;28;20507;-79
2023/06/30 02:29:15;;;;;;;11.67;6.87;;;;;;;;;;6221902;28;20463;-77
2023/06/30 02:32:15;;;;;;;10.23;6.83;;;;;;;;;;6221487;28;20595;-78
2023/06/30 02:35:15;;;;;;;13.33;7.77;;;;;;;;;;6218116;28;20067;-78
2023/06/30 02:38:15;;;;;;;15.83;8.17;;;;;;;;;;6220423;28;20045;-77
2023/06/30 02:41:16;;;;;;;10.93;7.28;;;;;;;;;;6221004;28;20030;-78
2023/06/30 02:44:16;;;;;;;9.27;7.17;;;;;;;;;;6216220;28;20493;-77
2023/06/30 02:47:16;;;;;;;11.23;7.20;;;;;;;;;;6219539;28;20095;-78
2023/06/30 02:50:17;;;;;;;14.63;8.43;;;;;;;;;;6222614;28;20381;-78
2023/06/30 02:53:17;;;;;;;12.73;8.57;;;;;;;;;;6221244;28;20026;-74
2023/06/30 02:56:18;;;;;;;12.83;8.47;;;;;;;;;;6221785;28;20106;-74
2023/06/30 02:59:18;;;;;;;14.30;8.73;;;;;;;;;;6215447;28;20052;-74
2023/06/30 03:02:18;;;;;;;14.27;9.80;;;;;;;;;;6220964;28;20109;-74
2023/06/30 03:05:18;;;;;;;13.43;9.57;;;;;;;;;;6220490;28;20022;-74
2023/06/30 03:08:19;;;;;;;14.07;8.87;;;;;;;;;;6220852;28;20030;-74
2023/06/30 03:11:19;;;;;;;12.47;8.70;;;;;;;;;;6218502;28;20076;-74
2023/06/30 03:14:19;;;;;;;15.03;10.83;;;;;;;;;;6221274;28;20032;-74
2023/06/30 03:17:19;;;;;;;13.67;8.97;;;;;;;;;;6220803;28;20026;-74
2023/06/30 03:20:19;;;;;;;15.70;9.40;;;;;;;;;;6221115;28;20529;-74
2023/06/30 03:23:20;;;;;;;10.93;8.17;;;;;;;;;;6221061;28;20028;-78
2023/06/30 03:26:20;;;;;;;13.93;8.93;;;;;;;;;;6213826;28;20483;-78
2023/06/30 03:29:20;;;;;;;13.43;8.07;;;;;;;;;;6219116;28;20550;-79
2023/06/30 03:32:20;;;;;;;12.20;8.75;;;;;;;;;;6202049;28;20022;-79
2023/06/30 03:35:20;;;;;;;11.97;9.17;;;;;;;;;;6220355;28;20026;-79
2023/06/30 03:38:21;;;;;;;14.67;8.50;;;;;;;;;;6220221;28;20429;-78
2023/06/30 03:41:21;;;;;;;14.83;8.83;;;;;;;;;;6201892;28;20022;-79
2023/06/30 03:44:21;;;;;;;13.00;8.00;;;;;;;;;;6219472;28;20109;-79
2023/06/30 03:47:22;;;;;;;15.73;9.50;;;;;;;;;;6214675;28;20022;-79
2023/06/30 03:50:22;;;;;;;13.07;9.75;;;;;;;;;;6220511;28;20255;-79
2023/06/30 03:53:23;;;;;;;14.13;10.03;;;;;;;;;;6216351;28;20034;-79
2023/06/30 03:56:23;;;;;;;15.50;11.17;;;;;;;;;;6218732;28;20089;-80
2023/06/30 03:59:23;;;;;;;15.73;11.17;;;;;;;;;;6201178;28;20071;-80
2023/06/30 04:02:23;;;;;;;17.07;11.57;;;;;;;;;;6218978;28;20794;-74
2023/06/30 04:05:23;;;;;;;17.67;11.97;;;;;;;;;;6219581;28;20507;-74
2023/06/30 04:08:24;;;;;;;20.03;12.30;;;;;;;;;;6212751;28;20030;-74
2023/06/30 04:11:24;;;;;;;20.13;12.83;;;;;;;;;;6214677;28;20023;-74
2023/06/30 04:14:24;;;;;;;15.73;11.55;;;;;;;;;;6217997;28;20054;-74
2023/06/30 04:17:24;;;;;;;16.55;11.52;;;;;;;;;;6218720;28;20018;-74
2023/06/30 04:20:25;;;;;;;17.92;11.13;;;;;;;;;;6218725;28;20033;-74
2023/06/30 04:23:25;;;;;;;18.23;12.27;;;;;;;;;;6219285;28;20436;-79
2023/06/30 04:26:25;;;;;;;17.23;13.23;;;;;;;;;;6218774;28;20596;-79
2023/06/30 04:29:26;;;;;;;17.77;11.77;;;;;;;;;;6218382;28;20107;-78
2023/06/30 04:32:26;;;;;;;16.90;12.67;;;;;;;;;;6217993;28;20141;-78
2023/06/30 04:35:26;;;;;;;17.05;12.55;;;;;;;;;;6219451;28;20018;-78
2023/06/30 04:38:27;;;;;;;21.50;13.30;;;;;;;;;;6218770;28;20392;-78
2023/06/30 04:41:27;;;;;;;17.97;11.23;;;;;;;;;;6212949;28;20421;-79
2023/06/30 04:44:27;;;;;;;18.83;10.57;;;;;;;;;;6214914;28;20037;-79
2023/06/30 04:47:29;;;;;;;15.02;12.15;;;;;;;;;;6218107;28;20106;-80
2023/06/30 04:50:29;;;;;;;19.67;11.68;;;;;;;;;;6218302;28;20029;-79
2023/06/30 04:53:29;;;;;;;14.00;12.20;;;;;;;;;;6202073;28;20053;-78
2023/06/30 04:56:30;;;;;;;21.00;12.60;;;;;;;;;;6218544;28;20109;-80
2023/06/30 04:59:30;;;;;;;17.77;12.38;;;;;;;;;;6218445;28;20022;-80
2023/06/30 05:02:30;;;;;;;19.07;11.90;;;;;;;;;;6218077;28;20024;-80
2023/06/30 05:05:31;;;;;;;18.67;12.20;;;;;;;;;;6218127;28;20025;-80
2023/06/30 05:08:31;;;;;;;18.13;11.93;;;;;;;;;;6217743;28;20564;-77
2023/06/30 05:11:31;;;;;;;15.47;10.90;;;;;;;;;;6218417;28;20071;-77
2023/06/30 05:14:31;;;;;;;13.30;10.63;;;;;;;;;;6214513;28;20034;-75
2023/06/30 05:17:31;;;;;;;16.00;11.75;;;;;;;;;;6218914;28;20026;-76
2023/06/30 05:20:33;;;;;;;15.63;11.63;;;;;;;;;;6217340;28;20061;-76
2023/06/30 05:23:33;;;;;;;13.23;10.13;;;;;;;;;;6217258;28;20029;-76
2023/06/30 05:26:34;;;;;;;16.13;11.43;;;;;;;;;;6198642;28;20536;-77
2023/06/30 05:29:34;;;;;;;14.53;10.63;;;;;;;;;;6217321;28;20042;-77
2023/06/30 05:32:35;;;;;;;12.37;10.00;;;;;;;;;;6217437;28;20057;-75
2023/06/30 05:35:35;;;;;;;13.10;10.93;;;;;;;;;;6210744;28;20076;-75
2023/06/30 05:38:35;;;;;;;17.43;10.80;;;;;;;;;;6216951;28;20037;-75
2023/06/30 05:41:35;;;;;;;15.43;9.98;;;;;;;;;;6213643;28;20060;-75
2023/06/30 05:44:35;;;;;;;13.45;9.90;;;;;;;;;;6217464;28;20427;-75
2023/06/30 05:47:36;;;;;;;13.87;8.83;;;;;;;;;;6218123;28;20006;-75
2023/06/30 05:50:36;;;;;;;14.23;9.20;;;;;;;;;;6217299;28;20405;-76
2023/06/30 05:53:36;;;;;;;12.98;8.63;;;;;;;;;;6213014;28;20071;-78
2023/06/30 05:56:36;;;;;;;12.07;8.50;;;;;;;;;;6208214;28;20026;-78
2023/06/30 05:59:36;;;;;;;14.00;8.07;;;;;;;;;;6215070;28;20068;-79
2023/06/30 06:02:37;;;;;;;10.87;6.87;;;;;;;;;;6216517;28;20476;-78
2023/06/30 06:05:37;;;;;;;12.57;7.07;;;;;;;;;;6216252;28;20090;-78
2023/06/30 06:08:42;;;;;;;10.20;6.78;;;;;;;;;;6210748;28;20487;-78
2023/06/30 06:11:43;;;;;;;10.32;6.97;;;;;;;;;;6214995;28;20026;-79
2023/06/30 06:14:43;;;;;;;8.95;5.60;;;;;;;;;;6215914;28;20594;-80
2023/06/30 06:17:43;;;;;;;9.70;6.45;;;;;;;;;;6212350;28;20440;-80
2023/06/30 06:20:43;;;;;;;10.85;6.22;;;;;;;;;;6209695;28;20026;-80
2023/06/30 06:23:44;;;;;;;9.40;5.93;;;;;;;;;;6217540;28;20052;-80
2023/06/30 06:26:44;;;;;;;10.37;5.77;;;;;;;;;;6219879;28;20477;-80
2023/06/30 06:29:44;;;;;;;11.17;5.60;;;;;;;;;;6216747;28;20042;-80
2023/06/30 06:32:44;;;;;;;10.88;6.78;;;;;;;;;;6222618;28;20025;-78
2023/06/30 06:35:44;;;;;;;9.52;5.75;;;;;;;;;;6223078;28;20026;-79
2023/06/30 06:38:45;;;;;;;14.10;6.03;;;;;;;;;;6218085;28;20105;-79
2023/06/30 06:41:45;;;;;;;8.10;5.38;;;;;;;;;;6221690;28;20037;-78
2023/06/30 06:44:45;;;;;;;10.43;5.50;;;;;;;;;;6222015;28;20136;-80
2023/06/30 06:48:04;;;;;;;8.48;5.35;;;;;;;;;;6219506;28;20029;-80
2023/06/30 06:51:04;;;;;;;7.03;4.85;;;;;;;;;;6220056;28;20052;-81
2023/06/30 06:54:04;;;;;;;7.50;4.27;;;;;;;;;;6222386;28;20091;-75
2023/06/30 06:57:05;;;;;;;7.50;4.40;;;;;;;;;;6225455;28;20014;-75
2023/06/30 07:00:05;;;;;;;13.33;4.27;;;;;;;;;;6224661;28;20021;-75
2023/06/30 07:03:05;;;;;;;6.72;4.30;;;;;;;;;;6216755;28;20021;-80
2023/06/30 07:06:08;;;;;;;10.60;4.03;;;;;;;;;;6217368;28;20006;-80
2023/06/30 07:09:09;;;;;;;4.50;3.92;;;;;;;;;;6216097;28;20017;-81
2023/06/30 07:12:09;;;;;;;6.35;4.20;;;;;;;;;;6221129;28;20095;-82
2023/06/30 07:15:09;;;;;;;7.27;4.10;;;;;;;;;;6219095;28;20066;-80
2023/06/30 07:18:10;;;;;;;;;;;;;;;;;;6221517;28;20010;-81
2023/06/30 07:21:11;;;;;;;8.88;4.10;;;;;;;;;;6218552;28;19913;-81
2023/06/30 07:24:11;;;;;;;7.97;3.78;;;;;;;;;;6220754;28;20021;-82
2023/06/30 07:27:11;;;;;;;6.97;3.92;;;;;;;;;;6219640;28;20033;-79
2023/06/30 07:30:11;;;;;;;8.57;3.77;;;;;;;;;;6216868;28;20599;-81
2023/06/30 07:33:12;;;;;;;6.30;3.73;;;;;;;;;;6202941;28;20020;-81
2023/06/30 07:36:12;;;;;;;5.25;3.08;;;;;;;;;;6220545;28;20028;-81
2023/06/30 07:39:12;;;;;;;6.32;3.53;;;;;;;;;;6220845;28;20025;-80
2023/06/30 07:42:14;;;;;;;8.87;3.43;;;;;;;;;;6218834;28;20064;-81
2023/06/30 07:45:14;;;;;;;;;;;;;;;;;;6219620;28;20496;-81
2023/06/30 07:48:14;;;;;;;7.00;2.97;;;;;;;;;;6217475;28;19923;-81
2023/06/30 07:51:14;;;;;;;5.87;3.47;;;;;;;;;;6210541;28;20030;-77
2023/06/30 07:54:15;;;;;;;7.97;3.28;;;;;;;;;;6219045;28;20113;-74
2023/06/30 07:57:15;;;;;;;4.50;2.60;;;;;;;;;;6215739;28;20029;-74
2023/06/30 08:00:18;;;;;;;4.63;2.58;;;;;;;;;;6219402;28;20389;-75
2023/06/30 08:03:19;;;;;;;6.55;2.70;;;;;;;;;;6213536;28;20104;-75
2023/06/30 08:06:19;;;;;;;5.20;3.03;;;;;;;;;;6216588;28;20052;-75
2023/06/30 08:09:20;;;;;;;;;;;;;;;;;;6211367;28;20029;-75
2023/06/30 08:12:20;;;;;;;6.05;2.60;;;;;;;;;;6215411;28;20012;-74
2023/06/30 08:15:20;;;;;;;;;;;;;;;;;;6218537;28;20109;-74
2023/06/30 08:18:20;;;;;;;11.20;3.28;;;;;;;;;;6218043;28;19912;-75
2023/06/30 08:21:20;;;;;;;;;;;;;;;;;;6219620;28;20527;-74
2023/06/30 08:24:21;;;;;;;8.57;3.10;;;;;;;;;;6201952;28;19952;-81
2023/06/30 08:27:21;;;;;;;5.90;2.80;;;;;;;;;;6220213;28;20070;-83
2023/06/30 08:30:22;;;;;;;4.22;2.40;;;;;;;;;;6223289;28;20268;-82
2023/06/30 08:33:22;;;;;;;;;;;;;;;;;;6219685;28;20026;-81
2023/06/30 08:36:23;;;;;;;3.90;2.65;;;;;;;;;;6219077;28;19916;-81
2023/06/30 08:39:23;;;;;;;8.00;3.03;;;;;;;;;;6219638;28;20026;-82
2023/06/30 08:42:27;;;;;;;6.03;2.43;;;;;;;;;;6215689;28;20034;-82
2023/06/30 08:45:28;;;;;;;4.43;2.30;;;;;;;;;;6216226;28;20018;-82
2023/06/30 08:48:29;;;;;;;6.03;3.05;;;;;;;;;;6218579;28;20789;-81
2023/06/30 08:51:29;;;;;;;;;;;;;;;;;;6219041;28;20022;-84
2023/06/30 08:54:31;;;;;;;6.97;2.53;;;;;;;;;;6218770;28;20000;-83
2023/06/30 08:57:32;;;;;;;5.93;2.88;;;;;;;;;;6223098;28;20020;-82
2023/06/30 09:00:32;;;;;;;4.78;2.47;;;;;;;;;;6220796;28;20026;-81
2023/06/30 09:03:33;;;;;;;5.05;2.75;;;;;;;;;;6218945;28;20101;-83
2023/06/30 09:06:33;;;;;;;;;;;;;;;;;;6218685;28;20766;-79
2023/06/30 09:09:44;;;;;;;4.40;2.70;;;;;;;;;;6218761;28;19916;-80
2023/06/30 09:12:46;;;;;;;4.68;2.60;;;;;;;;;;6218180;28;20498;-81
2023/06/30 09:15:47;;;;;;;6.65;2.80;;;;;;;;;;6222336;28;20022;-81
2023/06/30 09:18:47;;;;;;;;;;;;;;;;;;6225519;28;20495;-82
2023/06/30 09:21:49;;;;;;;6.65;2.92;;;;;;;;;;6222613;28;19913;-82
2023/06/30 09:24:49;;;;;;;5.13;3.00;;;;;;;;;;6217551;28;20017;-81
2023/06/30 09:27:50;;;;;;;;;;;;;;;;;;6218998;28;20029;-82
2023/06/30 09:30:50;;;;;;;9.02;3.13;;;;;;;;;;6218517;28;19916;-82
2023/06/30 09:33:50;;;;;;;;;;;;;;;;;;6219069;28;20032;-82
2023/06/30 09:36:53;;;;;;;6.13;2.65;;;;;;;;;;6217281;28;19909;-80
2023/06/30 09:39:53;;;;;;;3.80;2.60;;;;;;;;;;6217827;28;20022;-82
2023/06/30 09:42:53;;;;;;;;;;;;;;;;;;6218142;28;20030;-81
2023/06/30 09:45:54;;;;;;;5.10;2.97;;;;;;;;;;6212029;28;19944;-81
2023/06/30 09:48:55;;;;;;;;;;;;;;;;;;6218140;28;20473;-80
2023/06/30 09:51:56;;;;;;;5.20;2.40;;;;;;;;;;6216470;28;19956;-81
2023/06/30 09:54:56;;;;;;;5.80;2.40;;;;;;;;;;6218102;28;20037;-80
2023/06/30 09:57:56;;;;;;;;;;;;;;;;;;6208376;28;20542;-79
2023/06/30 10:00:57;;;;;;;3.13;2.30;;;;;;;;;;6215508;28;19919;-81
2023/06/30 10:03:57;;;;;;;7.95;2.53;;;;;;;;;;6218881;28;20056;-81
2023/06/30 10:06:57;;;;;;;;;;;;;;;;;;6218982;28;20089;-82
2023/06/30 10:09:58;;;;;;;2.25;1.80;;;;;;;;;;6215727;28;20422;-81
2023/06/30 10:12:58;;;;;;;3.60;2.55;;;;;;;;;;6213459;28;20104;-81
2023/06/30 10:15:59;;;;;;;6.53;2.72;;;;;;;;;;6210380;28;20095;-82
2023/06/30 10:19:01;;;;;;;4.90;2.27;;;;;;;;;;6216371;28;20076;-83
2023/06/30 10:22:03;;;;;;;4.60;2.35;;;;;;;;;;6221998;28;20387;-82
2023/06/30 10:25:04;;;;;;;6.05;2.55;;;;;;;;;;6220686;28;20085;-82
2023/06/30 10:28:08;;;;;;;3.28;2.10;;;;;;;;;;6221206;28;20030;-81
2023/06/30 10:31:09;;;;;;;4.72;2.38;;;;;;;;;;6221379;28;20042;-80
2023/06/30 10:34:09;;;;;;;5.53;2.75;;;;;;;;;;6221509;28;20030;-82
2023/06/30 10:37:10;;;;;;;2.42;2.13;;;;;;;;;;6222252;28;20025;-81
2023/06/30 10:40:31;;;;;;;3.78;2.28;;;;;;;;;;6217853;28;20560;-82
2023/06/30 10:43:51;;;;;;;8.73;2.65;;;;;;;;;;6205850;28;20491;-75
2023/06/30 10:46:52;;;;;;;6.00;2.15;;;;;;;;;;6213954;28;20032;-74
2023/06/30 10:49:53;;;;;;;8.38;2.47;;;;;;;;;;6221416;28;20468;-74
2023/06/30 10:52:54;;;;;;;4.85;2.00;;;;;;;;;;6217267;28;20038;-75
2023/06/30 10:55:54;;;;;;;2.92;2.20;;;;;;;;;;6220917;28;20057;-74
2023/06/30 10:58:58;;;;;;;3.47;2.42;;;;;;;;;;6218419;28;20450;-76
2023/06/30 11:02:18;;;;;;;3.28;2.15;;;;;;;;;;6221198;28;20108;-76
2023/06/30 11:05:21;;;;;;;3.28;2.28;;;;;;;;;;6170918;28;20500;-75
2023/06/30 11:08:22;;;;;;;3.28;2.00;;;;;;;;;;6217158;28;20776;-75
2023/06/30 11:11:22;;;;;;;3.63;2.28;;;;;;;;;;6219700;28;20033;-76
2023/06/30 11:14:34;;;;;;;7.10;2.93;;;;;;;;;;6218596;28;20030;-76
2023/06/30 11:17:54;;;;;;;4.00;2.40;;;;;;;;;;6215366;28;20396;-75
2023/06/30 11:21:01;;;;;;;5.18;2.17;;;;;;;;;;6215791;28;20101;-74
2023/06/30 11:24:12;;;;;;;3.65;2.30;;;;;;;;;;6220904;28;20010;-74
2023/06/30 11:27:14;;;;;;;3.22;2.13;;;;;;;;;;6220079;28;20453;-74
2023/06/30 11:30:18;;;;;;;4.63;2.65;;;;;;;;;;6235023;28;20041;-74
2023/06/30 11:33:18;;;;;;;7.85;2.67;;;;;;;;;;6242585;28;20080;-74
2023/06/30 11:36:19;;;;;;;4.83;2.53;;;;;;;;;;6244516;28;20013;-74
2023/06/30 11:39:19;;;;;;;6.77;2.20;;;;;;;;;;6243842;28;20590;-74
2023/06/30 11:42:19;;;;;;;5.33;2.43;;;;;;;;;;6243778;28;20280;-75
2023/06/30 11:45:20;;;;;;;6.50;2.40;;;;;;;;;;6236924;28;20037;-75
2023/06/30 11:48:20;;;;;;;6.05;2.25;;;;;;;;;;6239652;28;20114;-74
2023/06/30 11:51:20;;;;;;;7.83;2.30;;;;;;;;;;6240236;28;20116;-75
2023/06/30 11:54:28;;;;;;;4.32;1.98;;;;;;;;;;6241550;28;20025;-82
2023/06/30 11:57:32;;;;;;;3.50;2.35;;;;;;;;;;6237930;28;20021;-81
2023/06/30 12:00:33;;;;;;;5.50;2.28;;;;;;;;;;6248004;28;20037;-82
2023/06/30 12:03:33;;;;;;;6.60;3.57;;;;;;;;;;6243493;28;20026;-74
2023/06/30 12:06:35;;;;;;;4.87;2.33;;;;;;;;;;6234934;28;20022;-74
2023/06/30 12:09:38;;;;;;;11.85;2.75;;;;;;;;;;6237125;28;20017;-75
2023/06/30 12:12:39;;;;;;;4.35;2.42;;;;;;;;;;6229586;28;20026;-74
2023/06/30 12:15:41;;;;;;;4.13;2.30;;;;;;;;;;6239830;28;20092;-75
2023/06/30 12:18:43;;;;;;;3.45;2.65;;;;;;;;;;6238456;28;20052;-76
2023/06/30 12:21:50;;;;;;;4.70;2.50;;;;;;;;;;6240380;28;20466;-75
2023/06/30 12:24:54;;;;;;;5.15;2.08;;;;;;;;;;6241701;28;20091;-75
2023/06/30 12:27:54;;;;;;;3.25;2.28;;;;;;;;;;6235250;28;20626;-75
2023/06/30 12:30:54;;;;;;;3.07;1.67;;;;;;;;;;6215721;28;20025;-75
2023/06/30 12:33:54;;;;;;;5.30;2.87;;;;;;;;;;6217551;28;20025;-75
2023/06/30 12:36:55;;;;;;;4.27;1.97;;;;;;;;;;6217455;28;20039;-75
2023/06/30 12:39:58;;;;;;;3.80;1.98;;;;;;;;;;6216462;28;20571;-75
2023/06/30 12:42:58;;;;;;;4.43;2.17;;;;;;;;;;6217964;28;20395;-73
2023/06/30 12:45:58;;;;;;;2.23;1.83;;;;;;;;;;6211292;28;20018;-74
2023/06/30 12:48:59;;;;;;;3.58;2.15;;;;;;;;;;6204136;28;20018;-74
2023/06/30 12:51:59;;;;;;;5.00;2.00;;;;;;;;;;6218947;28;20717;-81
2023/06/30 12:55:01;;;;;;;3.83;1.98;;;;;;;;;;6212363;28;20099;-83
2023/06/30 12:58:02;;;;;;;4.50;2.20;;;;;;;;;;6209143;28;20029;-80
2023/06/30 13:01:03;;;;;;;3.17;2.05;;;;;;;;;;6214994;28;20021;-81
2023/06/30 13:04:03;;;;;;;3.40;2.50;;;;;;;;;;6217776;28;20548;-82
2023/06/30 13:07:04;;;;;;;2.93;2.43;;;;;;;;;;6217655;28;20026;-82
2023/06/30 13:10:04;;;;;;;3.60;2.20;;;;;;;;;;6215734;28;20502;-83
2023/06/30 13:13:05;;;;;;;5.28;2.30;;;;;;;;;;6216901;28;20473;-81
2023/06/30 13:16:05;;;;;;;5.05;1.80;;;;;;;;;;6214539;28;20026;-80
2023/06/30 13:19:05;;;;;;;4.38;2.40;;;;;;;;;;6207988;28;20141;-80
2023/06/30 13:22:06;;;;;;;5.23;2.00;;;;;;;;;;6217797;28;20052;-80
2023/06/30 13:25:06;;;;;;;4.70;2.90;;;;;;;;;;6216843;28;20076;-81
2023/06/30 13:28:06;;;;;;;4.65;2.00;;;;;;;;;;6217282;28;20037;-82
2023/06/30 13:31:06;;;;;;;4.93;2.50;;;;;;;;;;6217380;28;20030;-83
2023/06/30 13:34:07;;;;;;;6.60;2.10;;;;;;;;;;6216662;28;20030;-82
2023/06/30 13:37:08;;;;;;;6.20;2.03;;;;;;;;;;6217938;28;20030;-83
2023/06/30 13:40:08;;;;;;;5.23;3.70;;;;;;;;;;6211155;28;20025;-82
2023/06/30 13:43:08;;;;;;;3.40;2.20;;;;;;;;;;6217439;28;20323;-82
2023/06/30 13:46:08;;;;;;;3.53;2.10;;;;;;;;;;6214696;28;20030;-82
2023/06/30 13:49:09;;;;;;;4.75;2.72;;;;;;;;;;6217427;28;20018;-81
2023/06/30 13:52:09;;;;;;;3.33;2.03;;;;;;;;;;6200787;28;20424;-81
2023/06/30 13:55:09;;;;;;;2.43;2.13;;;;;;;;;;6213998;28;20025;-83
2023/06/30 13:58:09;;;;;;;5.53;2.37;;;;;;;;;;6215513;28;20385;-83
2023/06/30 14:01:10;;;;;;;3.63;2.23;;;;;;;;;;6217274;28;20477;-82
2023/06/30 14:04:10;;;;;;;3.37;1.70;;;;;;;;;;6214854;28;20018;-82
2023/06/30 14:07:10;;;;;;;10.33;3.43;;;;;;;;;;6209246;28;20036;-81
2023/06/30 14:10:10;;;;;;;6.38;2.13;;;;;;;;;;6199500;28;20068;-82
2023/06/30 14:13:10;;;;;;;5.40;2.90;;;;;;;;;;6215695;28;20599;-82
2023/06/30 14:16:11;;;;;;;3.83;2.13;;;;;;;;;;6208495;28;20037;-82
2023/06/30 14:19:11;;;;;;;3.47;2.30;;;;;;;;;;6215397;28;20036;-83
2023/06/30 14:22:11;;;;;;;4.68;2.13;;;;;;;;;;6212763;28;20149;-82
2023/06/30 14:25:21;;;;;;;4.85;2.60;;;;;;;;;;6217421;28;20583;-81
2023/06/30 14:28:22;;;;;;;4.50;2.43;;;;;;;;;;6217100;28;20038;-82
2023/06/30 14:31:22;;;;;;;2.67;2.28;;;;;;;;;;6217137;28;20636;-82
2023/06/30 14:34:22;;;;;;;2.77;2.20;;;;;;;;;;6216961;28;20112;-75
2023/06/30 14:37:23;;;;;;;;;;;;;;;;;;6217556;28;20267;-75
2023/06/30 14:40:24;;;;;;;4.30;2.70;;;;;;;;;;6216200;28;20161;-75
2023/06/30 14:43:25;;;;;;;5.15;2.30;;;;;;;;;;6216128;28;20088;-76
2023/06/30 14:46:26;;;;;;;3.33;2.25;;;;;;;;;;6214580;28;20096;-75
2023/06/30 14:49:26;;;;;;;;;;;;;;;;;;6221002;28;20018;-75
2023/06/30 14:52:26;;;;;;;3.28;2.30;;;;;;;;;;6220783;28;19959;-75
2023/06/30 14:55:26;;;;;;;;;;;;;;;;;;6221220;28;20040;-75
2023/06/30 14:58:26;;;;;;;5.07;2.55;;;;;;;;;;6214590;28;20363;-75
2023/06/30 15:01:26;;;;;;;;;;;;;;;;;;6220700;28;20058;-75
2023/06/30 15:04:27;;;;;;;4.05;2.33;;;;;;;;;;6220379;28;19933;-75
2023/06/30 15:07:27;;;;;;;;;;;;;;;;;;6219577;28;20033;-76
2023/06/30 15:10:27;;;;;;;5.70;2.33;;;;;;;;;;6217436;28;20024;-76
2023/06/30 15:13:27;;;;;;;;;;;;;;;;;;6220511;28;20025;-75
2023/06/30 15:16:27;;;;;;;7.30;2.97;;;;;;;;;;6219852;28;19944;-75
2023/06/30 15:19:27;;;;;;;;;;;;;;;;;;6220411;28;20026;-76
2023/06/30 15:22:29;;;;;;;5.75;2.30;;;;;;;;;;6220292;28;19914;-75
2023/06/30 15:25:30;;;;;;;18.88;4.60;;;;;;;;;;6220014;28;20050;-75
2023/06/30 15:28:30;;;;;;;;;;;;;;;;;;6220723;28;20096;-76
2023/06/30 15:31:31;;;;;;;7.73;3.03;;;;;;;;;;6219594;28;19909;-75
2023/06/30 15:34:31;;;;;;;;;;;;;;;;;;6220297;28;20089;-75
2023/06/30 15:37:31;;;;;;;6.10;2.20;;;;;;;;;;6219849;28;19909;-75
2023/06/30 15:40:32;;;;;;;5.38;3.20;;;;;;;;;;6220101;28;20026;-75
2023/06/30 15:43:33;;;;;;;13.45;4.35;;;;;;;;;;6220207;28;20041;-81
2023/06/30 15:46:33;;;;;;;;;;;;;;;;;;6219200;28;20034;-83
2023/06/30 15:49:33;;;;;;;8.45;2.83;;;;;;;;;;6212337;28;20067;-83
2023/06/30 15:52:34;;;;;;;7.20;3.97;;;;;;;;;;6210594;28;20064;-81
2023/06/30 15:55:35;;;;;;;15.55;8.73;;;;;;;;;;6219890;28;20032;-84
2023/06/30 15:58:35;;;;;;;;;;;;;;;;;;6215803;28;20025;-82
2023/06/30 16:01:35;;;;;;;25.65;9.57;;;;;;;;;;6219854;28;19913;-83
2023/06/30 16:04:35;;;;;;;40.15;19.75;;;;;;;;;;6216405;28;20026;-83
2023/06/30 16:07:36;;;;;;;73.78;44.72;;;;;;;;;;6212021;28;20088;-82
2023/06/30 16:10:36;;;;;;;66.82;42.10;;;;;;;;;;6218553;28;20054;-82
2023/06/30 16:13:36;;;;;;;35.97;22.13;;;;;;;;;;6217664;28;20013;-84
2023/06/30 16:16:36;;;;;;;60.55;34.20;;;;;;;;;;6217068;28;20105;-83
2023/06/30 16:19:37;;;;;;;103.90;68.33;;;;;;;;;;6198175;28;20638;-83
2023/06/30 16:22:37;;;;;;;106.88;65.75;;;;;;;;;;6216904;28;20026;-84
2023/06/30 16:25:37;;;;;;;104.53;65.63;;;;;;;;;;6213807;28;20117;-84
2023/06/30 16:28:37;;;;;;;78.73;45.37;;;;;;;;;;6213958;28;20050;-83
2023/06/30 16:31:38;;;;;;;35.37;22.00;;;;;;;;;;6239492;28;20152;-81
2023/06/30 16:34:38;;;;;;;21.73;10.00;;;;;;;;;;6238184;28;20029;-83
2023/06/30 16:37:38;;;;;;;8.90;4.50;;;;;;;;;;6234078;28;20076;-84
2023/06/30 16:40:38;;;;;;;7.17;3.47;;;;;;;;;;6238989;28;20025;-83
2023/06/30 16:43:38;;;;;;;5.77;3.17;;;;;;;;;;6239522;28;20052;-85
2023/06/30 16:46:39;;;;;;;5.50;2.60;;;;;;;;;;6231457;28;20076;-84
2023/06/30 16:49:40;;;;;;;7.78;2.95;;;;;;;;;;6233355;28;20045;-85
2023/06/30 16:52:42;;;;;;;;;;;;;;;;;;6237395;28;20028;-75
2023/06/30 16:55:42;;;;;;;8.63;3.25;;;;;;;;;;6237017;28;19940;-76
2023/06/30 16:58:42;;;;;;;5.77;2.70;;;;;;;;;;6243362;28;20039;-75
2023/06/30 17:01:42;;;;;;;9.00;2.87;;;;;;;;;;6240818;28;20040;-76
2023/06/30 17:04:43;;;;;;;9.07;3.23;;;;;;;;;;6239039;28;20017;-75
2023/06/30 17:07:43;;;;;;;8.43;3.97;;;;;;;;;;6233906;28;20025;-76
2023/06/30 17:10:44;;;;;;;7.38;3.05;;;;;;;;;;6229268;28;20108;-75
2023/06/30 17:13:44;;;;;;;5.43;3.05;;;;;;;;;;6234983;28;20025;-76
2023/06/30 17:16:44;;;;;;;7.60;3.13;;;;;;;;;;6241966;28;20096;-76
2023/06/30 17:19:44;;;;;;;5.20;3.07;;;;;;;;;;6242429;28;20062;-76
2023/06/30 17:22:44;;;;;;;8.27;3.37;;;;;;;;;;6243137;28;20032;-76
2023/06/30 17:25:45;;;;;;;8.80;3.40;;;;;;;;;;6243095;28;20383;-75
2023/06/30 17:28:45;;;;;;;6.43;3.43;;;;;;;;;;6231228;28;20042;-76
2023/06/30 17:31:45;;;;;;;12.17;3.73;;;;;;;;;;6217567;28;20365;-76
2023/06/30 17:34:45;;;;;;;6.77;3.03;;;;;;;;;;6217919;28;20017;-75
2023/06/30 17:37:45;;;;;;;6.47;4.03;;;;;;;;;;6217840;28;20024;-76
2023/06/30 17:40:46;;;;;;;55.50;10.77;;;;;;;;;;6218616;28;20030;-76
2023/06/30 17:43:46;;;;;;;22.30;6.03;;;;;;;;;;6217786;28;20025;-76
2023/06/30 17:46:46;;;;;;;27.90;6.03;;;;;;;;;;6217778;28;20013;-76
2023/06/30 17:49:47;;;;;;;26.50;6.80;;;;;;;;;;6196563;28;20477;-76
2023/06/30 17:52:47;;;;;;;45.80;9.52;;;;;;;;;;6209888;28;20022;-76
2023/06/30 17:55:49;;;;;;;21.73;6.35;;;;;;;;;;6213142;28;20439;-76
2023/06/30 17:58:50;;;;;;;19.70;6.13;;;;;;;;;;6211887;28;20373;-76
2023/06/30 18:01:50;;;;;;;14.03;5.40;;;;;;;;;;6218275;28;20021;-84
2023/06/30 18:04:50;;;;;;;31.77;6.33;;;;;;;;;;6215653;28;20097;-76